KAST

Astoria Regional Airport

Astoria, Oregon, USA
METAR KAST 211455Z AUTO 27003KT 10SM FEW036 BKN044 09/04 A3040 RMK AO2 SLP294 T00890039 53021
Observed Flight Rules
Apr-21 @ 14:55 UTC (46 minutes ago) Visual Flight Rules
Wind Visibility Clouds
270° at 3 knots 10 miles
  • Few at 3,600' AGL
  • Broken at 4,400' AGL
Temperatures Readings
Current 9°C / 48°F
Dewpoint 4°C / 39°F
Humidity 71%
Altimeter 30.4" Hg
Pressure 1029.4 hPa
Elevation 3
METAR KAST 211455Z AUTO 27003KT 10SM FEW036 BKN044 09/04 A3040 RMK AO2 SLP294 T00890039 53021
Observed Flight Rules
Apr-21 @ 14:55 UTC
(46 minutes ago)
VFR
Wind Visibility
270° at 3 knots 10 miles
Clouds
  • Few at 3,600' AGL
  • Broken at 4,400' AGL
Temperature Dewpoint
9°C / 48°F 4°C / 39°F
Humidity Altimeter Pressure
71% 30.4" Hg 1029.4 hPa